Terminal Aerodrome Forecast
Issued by NWS

Home | Current Version | Previous Version | Text Only | Print | Product List | Glossary On
Versions: 1 2 3 4 5 6 7 8 9 10 11 12 13 14 15 16 17 18 19 20 21 22
000
FTUS42 KFFC 051222 AAA
TAFFTY
TAF AMD
KFTY 051222Z 0512/0612 31006KT 6SM -RA BKN005 OVC010
     FM051400 32010G18KT 5SM -RA OVC007
     FM052100 32010G20KT P6SM VCSH OVC012
     FM060100 34010KT P6SM OVC022
     FM061000 34007KT P6SM BKN027=

USA.gov is the U.S. government's official web portal to all federal, state and local government web resources and services.